sensor_id;sensor_type;location;lat;lon;timestamp;pressure;altitude;pressure_sealevel;temperature;humidity
62952;BME280;52163;52.212;-1.002;2023-03-04T00:01:48;102035.10;;;4.65;71.02
62952;BME280;52163;52.212;-1.002;2023-03-04T00:04:15;102039.48;;;4.63;71.16
62952;BME280;52163;52.212;-1.002;2023-03-04T00:06:41;102041.44;;;4.61;71.32
62952;BME280;52163;52.212;-1.002;2023-03-04T00:09:06;102039.02;;;4.60;71.72
62952;BME280;52163;52.212;-1.002;2023-03-04T00:11:32;102036.40;;;4.58;71.87
62952;BME280;52163;52.212;-1.002;2023-03-04T00:13:57;102035.38;;;4.55;71.81
62952;BME280;52163;52.212;-1.002;2023-03-04T00:16:23;102033.98;;;4.54;72.08
62952;BME280;52163;52.212;-1.002;2023-03-04T00:18:53;102032.41;;;4.53;71.89
62952;BME280;52163;52.212;-1.002;2023-03-04T00:21:19;102039.92;;;4.55;72.21
62952;BME280;52163;52.212;-1.002;2023-03-04T00:23:44;102041.12;;;4.57;72.31
62952;BME280;52163;52.212;-1.002;2023-03-04T00:26:10;102037.09;;;4.57;72.01
62952;BME280;52163;52.212;-1.002;2023-03-04T00:28:37;102040.61;;;4.58;71.98
62952;BME280;52163;52.212;-1.002;2023-03-04T00:31:04;102040.95;;;4.58;71.91
62952;BME280;52163;52.212;-1.002;2023-03-04T00:33:30;102043.23;;;4.56;71.69
62952;BME280;52163;52.212;-1.002;2023-03-04T00:35:56;102040.80;;;4.54;71.63
62952;BME280;52163;52.212;-1.002;2023-03-04T00:38:21;102043.29;;;4.51;71.60
62952;BME280;52163;52.212;-1.002;2023-03-04T00:40:47;102037.55;;;4.48;71.58
62952;BME280;52163;52.212;-1.002;2023-03-04T00:43:12;102043.00;;;4.46;71.64
62952;BME280;52163;52.212;-1.002;2023-03-04T00:45:38;102039.52;;;4.45;71.83
62952;BME280;52163;52.212;-1.002;2023-03-04T00:48:03;102039.33;;;4.46;71.91
62952;BME280;52163;52.212;-1.002;2023-03-04T00:50:29;102041.95;;;4.46;72.04
62952;BME280;52163;52.212;-1.002;2023-03-04T00:52:54;102046.48;;;4.48;71.87
62952;BME280;52163;52.212;-1.002;2023-03-04T00:55:19;102040.17;;;4.48;71.83
62952;BME280;52163;52.212;-1.002;2023-03-04T00:57:45;102045.44;;;4.47;71.90
62952;BME280;52163;52.212;-1.002;2023-03-04T01:00:11;102049.84;;;4.45;71.86
62952;BME280;52163;52.212;-1.002;2023-03-04T01:02:37;102049.50;;;4.44;71.69
62952;BME280;52163;52.212;-1.002;2023-03-04T01:05:03;102048.65;;;4.42;71.48
62952;BME280;52163;52.212;-1.002;2023-03-04T01:07:29;102050.58;;;4.41;71.72
62952;BME280;52163;52.212;-1.002;2023-03-04T01:09:54;102047.08;;;4.41;71.66
62952;BME280;52163;52.212;-1.002;2023-03-04T01:12:19;102047.79;;;4.40;71.51
62952;BME280;52163;52.212;-1.002;2023-03-04T01:14:45;102046.23;;;4.39;71.95
62952;BME280;52163;52.212;-1.002;2023-03-04T01:17:10;102045.02;;;4.37;72.00
62952;BME280;52163;52.212;-1.002;2023-03-04T01:19:36;102048.00;;;4.36;72.05
62952;BME280;52163;52.212;-1.002;2023-03-04T01:22:02;102047.64;;;4.37;72.32
62952;BME280;52163;52.212;-1.002;2023-03-04T01:24:29;102050.23;;;4.40;72.44
62952;BME280;52163;52.212;-1.002;2023-03-04T01:26:54;102048.81;;;4.43;72.31
62952;BME280;52163;52.212;-1.002;2023-03-04T01:29:20;102048.80;;;4.44;72.22
62952;BME280;52163;52.212;-1.002;2023-03-04T01:31:45;102046.19;;;4.43;72.36
62952;BME280;52163;52.212;-1.002;2023-03-04T01:34:11;102045.30;;;4.43;72.07
62952;BME280;52163;52.212;-1.002;2023-03-04T01:36:36;102044.64;;;4.40;72.05
62952;BME280;52163;52.212;-1.002;2023-03-04T01:39:03;102043.60;;;4.39;71.59
62952;BME280;52163;52.212;-1.002;2023-03-04T01:41:28;102043.27;;;4.38;71.72
62952;BME280;52163;52.212;-1.002;2023-03-04T01:43:58;102039.77;;;4.36;71.69
62952;BME280;52163;52.212;-1.002;2023-03-04T01:46:27;102036.14;;;4.33;71.59
62952;BME280;52163;52.212;-1.002;2023-03-04T01:48:52;102034.39;;;4.32;71.41
62952;BME280;52163;52.212;-1.002;2023-03-04T01:51:19;102030.21;;;4.30;71.56
62952;BME280;52163;52.212;-1.002;2023-03-04T01:53:47;102029.52;;;4.28;71.71
62952;BME280;52163;52.212;-1.002;2023-03-04T01:59:21;102019.61;;;4.24;71.22
62952;BME280;52163;52.212;-1.002;2023-03-04T02:01:50;102014.34;;;4.25;71.71
62952;BME280;52163;52.212;-1.002;2023-03-04T02:04:18;102013.98;;;4.27;71.75
62952;BME280;52163;52.212;-1.002;2023-03-04T02:06:45;102013.41;;;4.30;71.77
62952;BME280;52163;52.212;-1.002;2023-03-04T02:09:11;102007.98;;;4.31;71.67
62952;BME280;52163;52.212;-1.002;2023-03-04T02:11:37;102003.60;;;4.31;71.54
62952;BME280;52163;52.212;-1.002;2023-03-04T02:14:04;101998.00;;;4.31;71.40
62952;BME280;52163;52.212;-1.002;2023-03-04T02:16:30;101999.76;;;4.31;71.28
62952;BME280;52163;52.212;-1.002;2023-03-04T02:18:56;101997.48;;;4.31;71.48
62952;BME280;52163;52.212;-1.002;2023-03-04T02:21:28;101992.08;;;4.30;71.47
62952;BME280;52163;52.212;-1.002;2023-03-04T02:26:48;101992.99;;;4.25;71.35
62952;BME280;52163;52.212;-1.002;2023-03-04T02:29:15;101990.05;;;4.23;71.88
62952;BME280;52163;52.212;-1.002;2023-03-04T02:31:43;101989.19;;;4.21;71.69
62952;BME280;52163;52.212;-1.002;2023-03-04T02:34:19;101990.27;;;4.19;71.94
62952;BME280;52163;52.212;-1.002;2023-03-04T02:36:46;101989.94;;;4.17;71.68
62952;BME280;52163;52.212;-1.002;2023-03-04T02:41:44;101988.52;;;4.20;72.17
62952;BME280;52163;52.212;-1.002;2023-03-04T02:44:19;101989.19;;;4.22;72.26
62952;BME280;52163;52.212;-1.002;2023-03-04T02:46:45;101991.62;;;4.24;72.28
62952;BME280;52163;52.212;-1.002;2023-03-04T02:49:11;101988.63;;;4.25;72.25
62952;BME280;52163;52.212;-1.002;2023-03-04T02:51:37;101986.16;;;4.27;72.50
62952;BME280;52163;52.212;-1.002;2023-03-04T02:54:02;101984.58;;;4.27;72.49
62952;BME280;52163;52.212;-1.002;2023-03-04T02:56:28;101975.49;;;4.26;72.56
62952;BME280;52163;52.212;-1.002;2023-03-04T02:58:53;101975.52;;;4.23;72.50
62952;BME280;52163;52.212;-1.002;2023-03-04T03:01:18;101976.08;;;4.20;72.59
62952;BME280;52163;52.212;-1.002;2023-03-04T03:03:44;101975.60;;;4.17;72.57
62952;BME280;52163;52.212;-1.002;2023-03-04T03:06:10;101982.10;;;4.14;72.71
62952;BME280;52163;52.212;-1.002;2023-03-04T03:08:35;101978.81;;;4.12;72.36
62952;BME280;52163;52.212;-1.002;2023-03-04T03:11:01;101977.05;;;4.12;72.56
62952;BME280;52163;52.212;-1.002;2023-03-04T03:13:26;101977.90;;;4.14;72.63
62952;BME280;52163;52.212;-1.002;2023-03-04T03:15:53;101980.34;;;4.15;72.60
62952;BME280;52163;52.212;-1.002;2023-03-04T03:18:18;101980.51;;;4.17;72.51
62952;BME280;52163;52.212;-1.002;2023-03-04T03:20:44;101977.86;;;4.18;72.23
62952;BME280;52163;52.212;-1.002;2023-03-04T03:23:09;101976.30;;;4.17;72.12
62952;BME280;52163;52.212;-1.002;2023-03-04T03:25:35;101975.09;;;4.15;72.39
62952;BME280;52163;52.212;-1.002;2023-03-04T03:28:00;101973.20;;;4.13;72.32
62952;BME280;52163;52.212;-1.002;2023-03-04T03:30:27;101973.72;;;4.12;72.44
62952;BME280;52163;52.212;-1.002;2023-03-04T03:32:52;101975.48;;;4.10;72.43
62952;BME280;52163;52.212;-1.002;2023-03-04T03:35:18;101972.16;;;4.09;72.41
62952;BME280;52163;52.212;-1.002;2023-03-04T03:37:43;101973.23;;;4.06;72.40
62952;BME280;52163;52.212;-1.002;2023-03-04T03:40:10;101975.52;;;4.04;72.35
62952;BME280;52163;52.212;-1.002;2023-03-04T03:42:35;101978.02;;;4.01;72.59
62952;BME280;52163;52.212;-1.002;2023-03-04T03:45:01;101968.77;;;3.98;72.12
62952;BME280;52163;52.212;-1.002;2023-03-04T03:47:26;101968.44;;;3.97;72.30
62952;BME280;52163;52.212;-1.002;2023-03-04T03:49:52;101971.75;;;3.98;72.78
62952;BME280;52163;52.212;-1.002;2023-03-04T03:52:17;101968.41;;;3.99;72.47
62952;BME280;52163;52.212;-1.002;2023-03-04T03:54:42;101968.75;;;4.01;72.68
62952;BME280;52163;52.212;-1.002;2023-03-04T03:57:08;101964.89;;;4.01;72.76
62952;BME280;52163;52.212;-1.002;2023-03-04T03:59:33;101962.63;;;4.00;72.49
62952;BME280;52163;52.212;-1.002;2023-03-04T04:01:59;101960.02;;;4.00;72.07
62952;BME280;52163;52.212;-1.002;2023-03-04T04:04:24;101956.54;;;3.98;72.12
62952;BME280;52163;52.212;-1.002;2023-03-04T04:06:50;101961.80;;;3.97;72.13
62952;BME280;52163;52.212;-1.002;2023-03-04T04:09:15;101959.55;;;3.95;71.78
62952;BME280;52163;52.212;-1.002;2023-03-04T04:11:40;101959.38;;;3.94;71.74
62952;BME280;52163;52.212;-1.002;2023-03-04T04:14:07;101958.15;;;3.93;71.78
62952;BME280;52163;52.212;-1.002;2023-03-04T04:16:33;101958.17;;;3.91;71.99
62952;BME280;52163;52.212;-1.002;2023-03-04T04:18:58;101958.37;;;3.90;71.72
62952;BME280;52163;52.212;-1.002;2023-03-04T04:21:23;101959.79;;;3.89;71.96
62952;BME280;52163;52.212;-1.002;2023-03-04T04:23:49;101963.61;;;3.89;72.13
62952;BME280;52163;52.212;-1.002;2023-03-04T04:26:14;101960.98;;;3.91;71.89
62952;BME280;52163;52.212;-1.002;2023-03-04T04:28:40;101963.77;;;3.92;72.24
62952;BME280;52163;52.212;-1.002;2023-03-04T04:31:07;101963.23;;;3.94;72.06
62952;BME280;52163;52.212;-1.002;2023-03-04T04:33:33;101962.17;;;3.94;72.31
62952;BME280;52163;52.212;-1.002;2023-03-04T04:35:59;101964.44;;;3.94;72.33
62952;BME280;52163;52.212;-1.002;2023-03-04T04:38:26;101965.50;;;3.93;72.07
62952;BME280;52163;52.212;-1.002;2023-03-04T04:40:52;101967.62;;;3.92;72.19
62952;BME280;52163;52.212;-1.002;2023-03-04T04:43:17;101969.02;;;3.91;72.38
62952;BME280;52163;52.212;-1.002;2023-03-04T04:45:42;101974.63;;;3.90;72.47
62952;BME280;52163;52.212;-1.002;2023-03-04T04:48:08;101977.45;;;3.87;72.36
62952;BME280;52163;52.212;-1.002;2023-03-04T04:50:33;101977.12;;;3.86;72.46
62952;BME280;52163;52.212;-1.002;2023-03-04T04:52:59;101978.14;;;3.88;72.47
62952;BME280;52163;52.212;-1.002;2023-03-04T04:55:24;101974.29;;;3.89;72.59
62952;BME280;52163;52.212;-1.002;2023-03-04T04:57:51;101974.63;;;3.90;72.90
62952;BME280;52163;52.212;-1.002;2023-03-04T05:00:17;101977.05;;;3.92;72.85
62952;BME280;52163;52.212;-1.002;2023-03-04T05:02:43;101977.23;;;3.92;73.03
62952;BME280;52163;52.212;-1.002;2023-03-04T05:05:09;101975.83;;;3.92;73.16
62952;BME280;52163;52.212;-1.002;2023-03-04T05:07:34;101979.52;;;3.91;73.10
62952;BME280;52163;52.212;-1.002;2023-03-04T05:09:59;101976.90;;;3.89;72.83
62952;BME280;52163;52.212;-1.002;2023-03-04T05:12:25;101977.09;;;3.89;73.06
62952;BME280;52163;52.212;-1.002;2023-03-04T05:14:50;101979.20;;;3.87;73.14
62952;BME280;52163;52.212;-1.002;2023-03-04T05:17:16;101980.95;;;3.87;73.54
62952;BME280;52163;52.212;-1.002;2023-03-04T05:19:41;101986.55;;;3.86;73.49
62952;BME280;52163;52.212;-1.002;2023-03-04T05:22:07;101984.64;;;3.84;73.55
62952;BME280;52163;52.212;-1.002;2023-03-04T05:24:32;101989.70;;;3.84;73.43
62952;BME280;52163;52.212;-1.002;2023-03-04T05:27:00;101988.83;;;3.85;73.70
62952;BME280;52163;52.212;-1.002;2023-03-04T05:29:25;101987.06;;;3.87;73.56
62952;BME280;52163;52.212;-1.002;2023-03-04T05:31:50;101991.25;;;3.89;73.52
62952;BME280;52163;52.212;-1.002;2023-03-04T05:34:16;101992.09;;;3.92;73.31
62952;BME280;52163;52.212;-1.002;2023-03-04T05:36:41;101996.45;;;3.94;73.36
62952;BME280;52163;52.212;-1.002;2023-03-04T05:39:07;101997.83;;;3.95;73.54
62952;BME280;52163;52.212;-1.002;2023-03-04T05:41:32;101994.67;;;3.96;73.31
62952;BME280;52163;52.212;-1.002;2023-03-04T05:43:57;101996.25;;;3.97;73.17
62952;BME280;52163;52.212;-1.002;2023-03-04T05:46:23;101996.08;;;3.96;73.28
62952;BME280;52163;52.212;-1.002;2023-03-04T05:48:51;101997.84;;;3.95;72.96
62952;BME280;52163;52.212;-1.002;2023-03-04T05:51:17;101998.55;;;3.94;73.18
62952;BME280;52163;52.212;-1.002;2023-03-04T05:53:43;101996.80;;;3.92;73.34
62952;BME280;52163;52.212;-1.002;2023-03-04T05:56:10;101996.30;;;3.91;73.25
62952;BME280;52163;52.212;-1.002;2023-03-04T05:58:36;101995.96;;;3.90;73.31
62952;BME280;52163;52.212;-1.002;2023-03-04T06:01:02;101994.94;;;3.87;73.36
62952;BME280;52163;52.212;-1.002;2023-03-04T06:03:28;101992.48;;;3.86;73.33
62952;BME280;52163;52.212;-1.002;2023-03-04T06:05:53;101988.30;;;3.87;73.41
62952;BME280;52163;52.212;-1.002;2023-03-04T06:08:19;101991.77;;;3.90;73.47
62952;BME280;52163;52.212;-1.002;2023-03-04T06:10:45;101990.85;;;3.94;73.67
62952;BME280;52163;52.212;-1.002;2023-03-04T06:13:11;101986.61;;;3.97;74.03
62952;BME280;52163;52.212;-1.002;2023-03-04T06:15:38;101988.15;;;4.01;73.98
62952;BME280;52163;52.212;-1.002;2023-03-04T06:18:04;101983.92;;;4.04;73.88
62952;BME280;52163;52.212;-1.002;2023-03-04T06:20:30;101989.02;;;4.03;73.78
62952;BME280;52163;52.212;-1.002;2023-03-04T06:22:55;101987.45;;;4.01;73.46
62952;BME280;52163;52.212;-1.002;2023-03-04T06:25:21;101988.16;;;4.00;73.43
62952;BME280;52163;52.212;-1.002;2023-03-04T06:27:46;101987.84;;;3.97;73.10
62952;BME280;52163;52.212;-1.002;2023-03-04T06:30:13;101986.98;;;3.97;73.26
62952;BME280;52163;52.212;-1.002;2023-03-04T06:32:38;101990.14;;;3.96;72.99
62952;BME280;52163;52.212;-1.002;2023-03-04T06:35:05;101993.29;;;3.95;73.15
62952;BME280;52163;52.212;-1.002;2023-03-04T06:37:31;101992.59;;;3.95;73.25
62952;BME280;52163;52.212;-1.002;2023-03-04T06:39:56;101999.06;;;3.94;72.91
62952;BME280;52163;52.212;-1.002;2023-03-04T06:42:22;101996.63;;;3.93;72.42
62952;BME280;52163;52.212;-1.002;2023-03-04T06:44:48;101997.14;;;3.94;72.66
62952;BME280;52163;52.212;-1.002;2023-03-04T06:47:14;101999.91;;;3.98;72.65
62952;BME280;52163;52.212;-1.002;2023-03-04T06:49:40;102003.20;;;4.00;72.83
62952;BME280;52163;52.212;-1.002;2023-03-04T06:52:05;102004.59;;;4.02;72.69
62952;BME280;52163;52.212;-1.002;2023-03-04T06:54:31;102005.27;;;4.03;72.73
62952;BME280;52163;52.212;-1.002;2023-03-04T06:56:56;102005.27;;;4.03;72.80
62952;BME280;52163;52.212;-1.002;2023-03-04T06:59:21;102011.40;;;4.02;72.49
62952;BME280;52163;52.212;-1.002;2023-03-04T07:01:47;102010.38;;;4.01;72.28
62952;BME280;52163;52.212;-1.002;2023-03-04T07:04:13;102011.42;;;4.00;72.66
62952;BME280;52163;52.212;-1.002;2023-03-04T07:06:39;102010.04;;;3.99;72.69
62952;BME280;52163;52.212;-1.002;2023-03-04T07:09:04;102011.09;;;3.98;72.32
62952;BME280;52163;52.212;-1.002;2023-03-04T07:11:30;102013.20;;;3.97;72.54
62952;BME280;52163;52.212;-1.002;2023-03-04T07:13:55;102012.86;;;3.96;72.67
62952;BME280;52163;52.212;-1.002;2023-03-04T07:16:22;102014.44;;;3.96;72.47
62952;BME280;52163;52.212;-1.002;2023-03-04T07:18:48;102013.54;;;3.99;72.74
62952;BME280;52163;52.212;-1.002;2023-03-04T07:21:15;102015.59;;;4.02;72.68
62952;BME280;52163;52.212;-1.002;2023-03-04T07:23:40;102016.62;;;4.06;72.50
62952;BME280;52163;52.212;-1.002;2023-03-04T07:26:06;102019.73;;;4.09;72.31
62952;BME280;52163;52.212;-1.002;2023-03-04T07:28:33;102017.95;;;4.14;72.74
62952;BME280;52163;52.212;-1.002;2023-03-04T07:33:37;102016.15;;;4.19;72.33
62952;BME280;52163;52.212;-1.002;2023-03-04T07:36:03;102017.36;;;4.20;72.16
62952;BME280;52163;52.212;-1.002;2023-03-04T07:38:28;102020.15;;;4.21;72.29
62952;BME280;52163;52.212;-1.002;2023-03-04T07:40:57;102021.20;;;4.21;72.13
62952;BME280;52163;52.212;-1.002;2023-03-04T07:43:23;102024.52;;;4.21;72.04
62952;BME280;52163;52.212;-1.002;2023-03-04T07:45:49;102027.51;;;4.21;72.34
62952;BME280;52163;52.212;-1.002;2023-03-04T07:48:14;102030.47;;;4.21;72.22
62952;BME280;52163;52.212;-1.002;2023-03-04T07:50:40;102029.42;;;4.21;72.27
62952;BME280;52163;52.212;-1.002;2023-03-04T07:53:05;102028.73;;;4.21;72.41
62952;BME280;52163;52.212;-1.002;2023-03-04T07:55:30;102033.30;;;4.20;72.53
62952;BME280;52163;52.212;-1.002;2023-03-04T07:57:56;102036.60;;;4.21;72.60
62952;BME280;52163;52.212;-1.002;2023-03-04T08:00:22;102036.23;;;4.24;72.54
62952;BME280;52163;52.212;-1.002;2023-03-04T08:02:48;102035.83;;;4.28;72.62
62952;BME280;52163;52.212;-1.002;2023-03-04T08:05:13;102041.73;;;4.33;72.26
62952;BME280;52163;52.212;-1.002;2023-03-04T08:07:39;102041.55;;;4.34;72.01
62952;BME280;52163;52.212;-1.002;2023-03-04T08:10:05;102043.64;;;4.35;71.70
62952;BME280;52163;52.212;-1.002;2023-03-04T08:12:32;102046.08;;;4.35;71.78
62952;BME280;52163;52.212;-1.002;2023-03-04T08:14:58;102049.08;;;4.34;71.85
62952;BME280;52163;52.212;-1.002;2023-03-04T08:17:23;102050.63;;;4.35;71.91
62952;BME280;52163;52.212;-1.002;2023-03-04T08:19:49;102054.83;;;4.35;71.69
62952;BME280;52163;52.212;-1.002;2023-03-04T08:22:14;102049.42;;;4.35;71.77
62952;BME280;52163;52.212;-1.002;2023-03-04T08:24:39;102052.38;;;4.35;71.71
62952;BME280;52163;52.212;-1.002;2023-03-04T08:27:05;102053.79;;;4.35;71.51
62952;BME280;52163;52.212;-1.002;2023-03-04T08:29:30;102052.21;;;4.35;71.44
62952;BME280;52163;52.212;-1.002;2023-03-04T08:31:56;102049.58;;;4.35;71.53
62952;BME280;52163;52.212;-1.002;2023-03-04T08:34:25;102050.09;;;4.38;71.28
62952;BME280;52163;52.212;-1.002;2023-03-04T08:36:51;102053.03;;;4.41;71.24
62952;BME280;52163;52.212;-1.002;2023-03-04T08:39:17;102055.80;;;4.43;71.19
62952;BME280;52163;52.212;-1.002;2023-03-04T08:41:43;102056.98;;;4.48;71.10
62952;BME280;52163;52.212;-1.002;2023-03-04T08:44:09;102057.61;;;4.54;70.90
62952;BME280;52163;52.212;-1.002;2023-03-04T08:46:39;102056.02;;;4.55;70.49
62952;BME280;52163;52.212;-1.002;2023-03-04T08:49:06;102057.41;;;4.57;70.29
62952;BME280;52163;52.212;-1.002;2023-03-04T08:51:31;102050.77;;;4.57;70.18
62952;BME280;52163;52.212;-1.002;2023-03-04T08:54:00;102050.05;;;4.57;69.67
62952;BME280;52163;52.212;-1.002;2023-03-04T08:56:25;102052.36;;;4.54;69.54
62952;BME280;52163;52.212;-1.002;2023-03-04T08:58:51;102050.11;;;4.53;69.54
62952;BME280;52163;52.212;-1.002;2023-03-04T09:01:16;102050.64;;;4.52;69.58
62952;BME280;52163;52.212;-1.002;2023-03-04T09:03:41;102051.48;;;4.53;69.58
62952;BME280;52163;52.212;-1.002;2023-03-04T09:06:08;102058.32;;;4.53;69.45
62952;BME280;52163;52.212;-1.002;2023-03-04T09:08:34;102052.91;;;4.53;69.37
62952;BME280;52163;52.212;-1.002;2023-03-04T09:11:00;102050.27;;;4.54;69.34
62952;BME280;52163;52.212;-1.002;2023-03-04T09:13:28;102046.94;;;4.55;69.08
62952;BME280;52163;52.212;-1.002;2023-03-04T09:15:54;102053.57;;;4.57;69.09
62952;BME280;52163;52.212;-1.002;2023-03-04T09:18:21;102052.70;;;4.56;68.72
62952;BME280;52163;52.212;-1.002;2023-03-04T09:20:47;102051.11;;;4.59;68.91
62952;BME280;52163;52.212;-1.002;2023-03-04T09:23:13;102051.39;;;4.65;68.89
62952;BME280;52163;52.212;-1.002;2023-03-04T09:25:39;102054.12;;;4.70;69.06
62952;BME280;52163;52.212;-1.002;2023-03-04T09:28:05;102056.70;;;4.74;68.73
62952;BME280;52163;52.212;-1.002;2023-03-04T09:30:32;102054.38;;;4.78;68.69
62952;BME280;52163;52.212;-1.002;2023-03-04T09:32:57;102054.86;;;4.81;68.85
62952;BME280;52163;52.212;-1.002;2023-03-04T09:35:23;102055.67;;;4.87;68.63
62952;BME280;52163;52.212;-1.002;2023-03-04T09:37:48;102051.95;;;4.92;68.44
62952;BME280;52163;52.212;-1.002;2023-03-04T09:40:25;102050.83;;;4.98;68.04
62952;BME280;52163;52.212;-1.002;2023-03-04T09:42:55;102046.39;;;5.02;67.87
62952;BME280;52163;52.212;-1.002;2023-03-04T09:45:32;102043.18;;;5.07;67.66
62952;BME280;52163;52.212;-1.002;2023-03-04T09:47:59;102046.13;;;5.10;67.46
62952;BME280;52163;52.212;-1.002;2023-03-04T09:50:25;102047.84;;;5.13;67.16
62952;BME280;52163;52.212;-1.002;2023-03-04T09:55:42;102046.38;;;5.17;66.89
62952;BME280;52163;52.212;-1.002;2023-03-04T10:01:20;102045.37;;;5.27;66.96
62952;BME280;52163;52.212;-1.002;2023-03-04T10:03:53;102044.10;;;5.31;66.84
62952;BME280;52163;52.212;-1.002;2023-03-04T10:06:21;102044.20;;;5.35;66.74
62952;BME280;52163;52.212;-1.002;2023-03-04T10:09:03;102041.88;;;5.38;66.65
62952;BME280;52163;52.212;-1.002;2023-03-04T10:11:38;102044.46;;;5.41;66.58
62952;BME280;52163;52.212;-1.002;2023-03-04T10:22:45;102042.23;;;5.49;66.11
62952;BME280;52163;52.212;-1.002;2023-03-04T10:25:18;102039.21;;;5.53;66.30
62952;BME280;52163;52.212;-1.002;2023-03-04T10:27:47;102041.20;;;5.61;66.47
62952;BME280;52163;52.212;-1.002;2023-03-04T10:30:37;102043.20;;;5.67;66.07
62952;BME280;52163;52.212;-1.002;2023-03-04T10:33:16;102040.50;;;5.73;66.05
62952;BME280;52163;52.212;-1.002;2023-03-04T10:36:02;102037.27;;;5.77;65.92
62952;BME280;52163;52.212;-1.002;2023-03-04T10:38:30;102040.05;;;5.78;65.53
62952;BME280;52163;52.212;-1.002;2023-03-04T10:40:57;102040.02;;;5.80;65.41
62952;BME280;52163;52.212;-1.002;2023-03-04T10:43:24;102039.28;;;5.84;65.11
62952;BME280;52163;52.212;-1.002;2023-03-04T10:45:54;102040.23;;;5.89;65.04
62952;BME280;52163;52.212;-1.002;2023-03-04T10:48:24;102038.86;;;5.99;64.86
62952;BME280;52163;52.212;-1.002;2023-03-04T10:50:50;102031.13;;;6.11;64.62
62952;BME280;52163;52.212;-1.002;2023-03-04T10:53:27;102028.93;;;6.26;64.25
62952;BME280;52163;52.212;-1.002;2023-03-04T10:55:54;102025.09;;;6.44;63.86
62952;BME280;52163;52.212;-1.002;2023-03-04T10:58:20;102020.20;;;6.62;63.60
62952;BME280;52163;52.212;-1.002;2023-03-04T11:00:59;102016.04;;;6.77;63.00
62952;BME280;52163;52.212;-1.002;2023-03-04T11:03:35;102017.45;;;6.93;62.64
62952;BME280;52163;52.212;-1.002;2023-03-04T11:06:08;102014.13;;;7.10;62.14
62952;BME280;52163;52.212;-1.002;2023-03-04T11:08:34;102016.11;;;7.23;61.63
62952;BME280;52163;52.212;-1.002;2023-03-04T11:10:59;102012.35;;;7.26;61.22
62952;BME280;52163;52.212;-1.002;2023-03-04T11:13:25;102008.38;;;7.31;60.82
62952;BME280;52163;52.212;-1.002;2023-03-04T11:16:03;102007.89;;;7.36;60.67
62952;BME280;52163;52.212;-1.002;2023-03-04T11:18:40;102006.72;;;7.41;60.56
62952;BME280;52163;52.212;-1.002;2023-03-04T11:21:14;102010.39;;;7.43;60.48
62952;BME280;52163;52.212;-1.002;2023-03-04T11:23:59;102013.59;;;7.41;60.25
62952;BME280;52163;52.212;-1.002;2023-03-04T11:26:44;102015.60;;;7.38;60.29
62952;BME280;52163;52.212;-1.002;2023-03-04T11:29:14;102011.36;;;7.31;60.18
62952;BME280;52163;52.212;-1.002;2023-03-04T11:31:54;102010.75;;;7.27;60.09
62952;BME280;52163;52.212;-1.002;2023-03-04T11:34:37;102005.55;;;7.32;60.06
62952;BME280;52163;52.212;-1.002;2023-03-04T11:37:21;101999.08;;;7.45;60.14
62952;BME280;52163;52.212;-1.002;2023-03-04T11:39:57;101993.11;;;7.60;59.30
62952;BME280;52163;52.212;-1.002;2023-03-04T11:42:53;101982.10;;;7.71;58.94
62952;BME280;52163;52.212;-1.002;2023-03-04T11:45:29;101974.10;;;7.82;58.79
62952;BME280;52163;52.212;-1.002;2023-03-04T12:01:08;101961.68;;;8.19;57.36
62952;BME280;52163;52.212;-1.002;2023-03-04T12:03:59;101952.42;;;8.23;57.07
62952;BME280;52163;52.212;-1.002;2023-03-04T12:06:39;101944.05;;;8.27;57.40
62952;BME280;52163;52.212;-1.002;2023-03-04T12:20:38;101934.31;;;8.23;56.57
62952;BME280;52163;52.212;-1.002;2023-03-04T12:23:25;101935.26;;;8.26;56.63
62952;BME280;52163;52.212;-1.002;2023-03-04T12:26:07;101927.78;;;8.23;56.39
62952;BME280;52163;52.212;-1.002;2023-03-04T12:29:01;101920.04;;;8.23;56.06
62952;BME280;52163;52.212;-1.002;2023-03-04T12:31:41;101919.79;;;8.19;55.90
62952;BME280;52163;52.212;-1.002;2023-03-04T12:34:28;101915.69;;;8.15;55.74
62952;BME280;52163;52.212;-1.002;2023-03-04T12:45:48;101916.36;;;7.97;55.34
62952;BME280;52163;52.212;-1.002;2023-03-04T12:48:32;101914.66;;;7.87;55.52
62952;BME280;52163;52.212;-1.002;2023-03-04T12:53:48;101903.73;;;7.68;55.53
62952;BME280;52163;52.212;-1.002;2023-03-04T12:56:25;101899.73;;;7.66;55.54
62952;BME280;52163;52.212;-1.002;2023-03-04T12:58:52;101896.98;;;7.64;55.79
62952;BME280;52163;52.212;-1.002;2023-03-04T13:01:26;101899.01;;;7.61;55.71
62952;BME280;52163;52.212;-1.002;2023-03-04T13:03:56;101892.70;;;7.53;55.87
62952;BME280;52163;52.212;-1.002;2023-03-04T13:06:38;101894.23;;;7.47;56.09
62952;BME280;52163;52.212;-1.002;2023-03-04T13:16:47;101879.39;;;7.15;56.80
62952;BME280;52163;52.212;-1.002;2023-03-04T13:19:56;101880.54;;;7.11;57.01
62952;BME280;52163;52.212;-1.002;2023-03-04T13:22:31;101879.85;;;7.10;56.92
62952;BME280;52163;52.212;-1.002;2023-03-04T13:25:26;101875.35;;;7.08;56.76
62952;BME280;52163;52.212;-1.002;2023-03-04T13:32:56;101871.14;;;7.07;56.67
62952;BME280;52163;52.212;-1.002;2023-03-04T13:43:51;101860.22;;;7.51;56.78
62952;BME280;52163;52.212;-1.002;2023-03-04T13:51:41;101856.20;;;7.70;56.34
62952;BME280;52163;52.212;-1.002;2023-03-04T13:54:29;101854.43;;;7.63;56.05
62952;BME280;52163;52.212;-1.002;2023-03-04T13:57:20;101856.77;;;7.55;55.97
62952;BME280;52163;52.212;-1.002;2023-03-04T14:02:13;101855.58;;;7.47;55.79
62952;BME280;52163;52.212;-1.002;2023-03-04T14:05:00;101855.36;;;7.41;55.97
62952;BME280;52163;52.212;-1.002;2023-03-04T14:07:32;101851.80;;;7.36;56.01
62952;BME280;52163;52.212;-1.002;2023-03-04T14:12:35;101851.77;;;7.30;56.15
62952;BME280;52163;52.212;-1.002;2023-03-04T14:15:30;101857.00;;;7.18;55.76
62952;BME280;52163;52.212;-1.002;2023-03-04T14:18:01;101850.83;;;7.05;56.00
62952;BME280;52163;52.212;-1.002;2023-03-04T14:20:39;101846.39;;;6.99;56.18
62952;BME280;52163;52.212;-1.002;2023-03-04T14:23:34;101840.26;;;6.97;56.37
62952;BME280;52163;52.212;-1.002;2023-03-04T14:28:30;101833.40;;;6.90;56.42
62952;BME280;52163;52.212;-1.002;2023-03-04T14:30:56;101832.34;;;6.91;56.49
62952;BME280;52163;52.212;-1.002;2023-03-04T14:33:27;101828.89;;;6.95;56.71